sensor_id;sensor_type;location;lat;lon;timestamp;temperature;humidity
78461;SHT31;67755;51.986;5.696;2024-02-23T00:00:13;9.3;66.1
78461;SHT31;67755;51.986;5.696;2024-02-23T00:02:44;9.3;65.1
78461;SHT31;67755;51.986;5.696;2024-02-23T00:05:12;9.3;64.2
78461;SHT31;67755;51.986;5.696;2024-02-23T00:07:43;9.3;65.6
78461;SHT31;67755;51.986;5.696;2024-02-23T00:10:13;9.3;65.5
78461;SHT31;67755;51.986;5.696;2024-02-23T00:12:44;9.3;65.9
78461;SHT31;67755;51.986;5.696;2024-02-23T00:15:14;9.3;66.2
78461;SHT31;67755;51.986;5.696;2024-02-23T00:17:44;9.3;66.1
78461;SHT31;67755;51.986;5.696;2024-02-23T00:20:13;9.3;66.2
78461;SHT31;67755;51.986;5.696;2024-02-23T00:22:41;9.3;66.9
78461;SHT31;67755;51.986;5.696;2024-02-23T00:25:10;9.3;66.5
78461;SHT31;67755;51.986;5.696;2024-02-23T00:27:38;9.3;66.6
78461;SHT31;67755;51.986;5.696;2024-02-23T00:30:09;9.3;66.8
78461;SHT31;67755;51.986;5.696;2024-02-23T00:32:39;9.3;66.7
78461;SHT31;67755;51.986;5.696;2024-02-23T00:35:10;9.3;66.9
78461;SHT31;67755;51.986;5.696;2024-02-23T00:37:38;9.3;67.3
78461;SHT31;67755;51.986;5.696;2024-02-23T00:40:08;9.3;67.9
78461;SHT31;67755;51.986;5.696;2024-02-23T00:42:36;9.3;67.3
78461;SHT31;67755;51.986;5.696;2024-02-23T00:45:06;9.3;65.6
78461;SHT31;67755;51.986;5.696;2024-02-23T00:47:34;9.3;65.5
78461;SHT31;67755;51.986;5.696;2024-02-23T00:50:04;9.3;65.5
78461;SHT31;67755;51.986;5.696;2024-02-23T00:52:33;9.3;65.7
78461;SHT31;67755;51.986;5.696;2024-02-23T00:55:02;9.3;64.0
78461;SHT31;67755;51.986;5.696;2024-02-23T00:57:32;9.3;63.6
78461;SHT31;67755;51.986;5.696;2024-02-23T01:00:00;9.2;63.0
78461;SHT31;67755;51.986;5.696;2024-02-23T01:02:29;9.2;63.5
78461;SHT31;67755;51.986;5.696;2024-02-23T01:04:57;9.2;63.0
78461;SHT31;67755;51.986;5.696;2024-02-23T01:07:26;9.2;62.5
78461;SHT31;67755;51.986;5.696;2024-02-23T01:09:55;9.1;63.2
78461;SHT31;67755;51.986;5.696;2024-02-23T01:12:25;9.1;63.8
78461;SHT31;67755;51.986;5.696;2024-02-23T01:14:53;9.0;64.6
78461;SHT31;67755;51.986;5.696;2024-02-23T01:17:22;9.0;65.0
78461;SHT31;67755;51.986;5.696;2024-02-23T01:19:50;9.0;65.9
78461;SHT31;67755;51.986;5.696;2024-02-23T01:22:18;9.0;66.4
78461;SHT31;67755;51.986;5.696;2024-02-23T01:24:47;9.0;66.8
78461;SHT31;67755;51.986;5.696;2024-02-23T01:27:16;8.9;67.2
78461;SHT31;67755;51.986;5.696;2024-02-23T01:29:44;8.9;67.5
78461;SHT31;67755;51.986;5.696;2024-02-23T01:32:13;8.9;67.6
78461;SHT31;67755;51.986;5.696;2024-02-23T01:34:41;8.9;67.4
78461;SHT31;67755;51.986;5.696;2024-02-23T01:37:10;8.9;67.4
78461;SHT31;67755;51.986;5.696;2024-02-23T01:39:38;8.9;67.5
78461;SHT31;67755;51.986;5.696;2024-02-23T01:42:08;8.9;67.5
78461;SHT31;67755;51.986;5.696;2024-02-23T01:44:36;8.9;67.0
78461;SHT31;67755;51.986;5.696;2024-02-23T01:47:07;8.9;67.3
78461;SHT31;67755;51.986;5.696;2024-02-23T01:49:36;8.9;66.7
78461;SHT31;67755;51.986;5.696;2024-02-23T01:52:05;8.9;67.1
78461;SHT31;67755;51.986;5.696;2024-02-23T01:54:33;8.9;67.2
78461;SHT31;67755;51.986;5.696;2024-02-23T01:57:02;8.9;67.7
78461;SHT31;67755;51.986;5.696;2024-02-23T01:59:31;8.9;67.5
78461;SHT31;67755;51.986;5.696;2024-02-23T02:01:59;8.9;66.9
78461;SHT31;67755;51.986;5.696;2024-02-23T02:04:29;8.9;66.9
78461;SHT31;67755;51.986;5.696;2024-02-23T02:06:59;8.9;66.6
78461;SHT31;67755;51.986;5.696;2024-02-23T02:09:28;8.9;66.7
78461;SHT31;67755;51.986;5.696;2024-02-23T02:11:57;8.9;66.1
78461;SHT31;67755;51.986;5.696;2024-02-23T02:14:25;8.9;66.4
78461;SHT31;67755;51.986;5.696;2024-02-23T02:16:56;8.9;66.4
78461;SHT31;67755;51.986;5.696;2024-02-23T02:19:25;8.9;66.3
78461;SHT31;67755;51.986;5.696;2024-02-23T02:21:53;8.9;66.0
78461;SHT31;67755;51.986;5.696;2024-02-23T02:24:23;8.9;65.9
78461;SHT31;67755;51.986;5.696;2024-02-23T02:26:52;8.9;66.2
78461;SHT31;67755;51.986;5.696;2024-02-23T02:29:20;8.9;65.9
78461;SHT31;67755;51.986;5.696;2024-02-23T02:31:49;8.9;65.8
78461;SHT31;67755;51.986;5.696;2024-02-23T02:34:17;8.9;66.1
78461;SHT31;67755;51.986;5.696;2024-02-23T02:36:47;8.9;65.9
78461;SHT31;67755;51.986;5.696;2024-02-23T02:39:17;8.9;65.5
78461;SHT31;67755;51.986;5.696;2024-02-23T02:41:48;8.9;66.0
78461;SHT31;67755;51.986;5.696;2024-02-23T02:44:17;8.9;65.4
78461;SHT31;67755;51.986;5.696;2024-02-23T02:46:45;8.9;65.6
78461;SHT31;67755;51.986;5.696;2024-02-23T02:49:16;8.9;65.9
78461;SHT31;67755;51.986;5.696;2024-02-23T02:51:44;8.9;65.6
78461;SHT31;67755;51.986;5.696;2024-02-23T02:54:13;8.9;65.8
78461;SHT31;67755;51.986;5.696;2024-02-23T02:56:44;8.9;65.7
78461;SHT31;67755;51.986;5.696;2024-02-23T02:59:13;8.9;65.6
78461;SHT31;67755;51.986;5.696;2024-02-23T03:01:42;8.9;65.6
78461;SHT31;67755;51.986;5.696;2024-02-23T03:04:10;8.9;65.9
78461;SHT31;67755;51.986;5.696;2024-02-23T03:06:39;8.9;65.7
78461;SHT31;67755;51.986;5.696;2024-02-23T03:09:07;8.9;65.6
78461;SHT31;67755;51.986;5.696;2024-02-23T03:11:36;8.9;65.3
78461;SHT31;67755;51.986;5.696;2024-02-23T03:14:05;8.9;65.4
78461;SHT31;67755;51.986;5.696;2024-02-23T03:16:34;8.9;65.1
78461;SHT31;67755;51.986;5.696;2024-02-23T03:19:03;8.9;65.0
78461;SHT31;67755;51.986;5.696;2024-02-23T03:21:35;8.9;64.3
78461;SHT31;67755;51.986;5.696;2024-02-23T03:24:04;8.9;64.7
78461;SHT31;67755;51.986;5.696;2024-02-23T03:26:33;8.9;64.4
78461;SHT31;67755;51.986;5.696;2024-02-23T03:29:01;8.9;64.4
78461;SHT31;67755;51.986;5.696;2024-02-23T03:31:30;8.9;64.2
78461;SHT31;67755;51.986;5.696;2024-02-23T03:33:58;8.9;65.3
78461;SHT31;67755;51.986;5.696;2024-02-23T03:36:26;8.9;65.4
78461;SHT31;67755;51.986;5.696;2024-02-23T03:38:55;8.8;65.2
78461;SHT31;67755;51.986;5.696;2024-02-23T03:41:23;8.8;64.9
78461;SHT31;67755;51.986;5.696;2024-02-23T03:43:54;8.8;64.8
78461;SHT31;67755;51.986;5.696;2024-02-23T03:46:22;8.8;64.6
78461;SHT31;67755;51.986;5.696;2024-02-23T03:48:53;8.8;65.2
78461;SHT31;67755;51.986;5.696;2024-02-23T03:51:22;8.8;65.6
78461;SHT31;67755;51.986;5.696;2024-02-23T03:53:50;8.8;65.0
78461;SHT31;67755;51.986;5.696;2024-02-23T03:56:19;8.8;64.6
78461;SHT31;67755;51.986;5.696;2024-02-23T03:58:49;8.8;64.7
78461;SHT31;67755;51.986;5.696;2024-02-23T04:01:18;8.8;64.8
78461;SHT31;67755;51.986;5.696;2024-02-23T04:03:48;8.7;65.1
78461;SHT31;67755;51.986;5.696;2024-02-23T04:06:16;8.7;65.1
78461;SHT31;67755;51.986;5.696;2024-02-23T04:08:45;8.7;64.7
78461;SHT31;67755;51.986;5.696;2024-02-23T04:11:14;8.7;64.8
78461;SHT31;67755;51.986;5.696;2024-02-23T04:13:43;8.7;65.3
78461;SHT31;67755;51.986;5.696;2024-02-23T04:16:13;8.7;64.7
78461;SHT31;67755;51.986;5.696;2024-02-23T04:18:41;8.7;64.6
78461;SHT31;67755;51.986;5.696;2024-02-23T04:21:10;8.7;65.3
78461;SHT31;67755;51.986;5.696;2024-02-23T04:23:38;8.7;65.1
78461;SHT31;67755;51.986;5.696;2024-02-23T04:26:08;8.7;65.1
78461;SHT31;67755;51.986;5.696;2024-02-23T04:28:39;8.7;64.8
78461;SHT31;67755;51.986;5.696;2024-02-23T04:31:08;8.7;64.6
78461;SHT31;67755;51.986;5.696;2024-02-23T04:33:37;8.7;65.0
78461;SHT31;67755;51.986;5.696;2024-02-23T04:36:08;8.7;65.6
78461;SHT31;67755;51.986;5.696;2024-02-23T04:38:37;8.7;65.2
78461;SHT31;67755;51.986;5.696;2024-02-23T04:41:06;8.7;64.9
78461;SHT31;67755;51.986;5.696;2024-02-23T04:43:36;8.7;65.6
78461;SHT31;67755;51.986;5.696;2024-02-23T04:46:05;8.7;65.4
78461;SHT31;67755;51.986;5.696;2024-02-23T04:48:33;8.7;65.3
78461;SHT31;67755;51.986;5.696;2024-02-23T04:51:03;8.7;65.1
78461;SHT31;67755;51.986;5.696;2024-02-23T04:53:38;8.7;65.2
78461;SHT31;67755;51.986;5.696;2024-02-23T04:56:07;8.7;65.3
78461;SHT31;67755;51.986;5.696;2024-02-23T04:58:35;8.7;65.0
78461;SHT31;67755;51.986;5.696;2024-02-23T05:01:11;8.7;65.5
78461;SHT31;67755;51.986;5.696;2024-02-23T05:03:40;8.8;65.5
78461;SHT31;67755;51.986;5.696;2024-02-23T05:06:08;8.8;65.8
78461;SHT31;67755;51.986;5.696;2024-02-23T05:08:39;8.8;65.0
78461;SHT31;67755;51.986;5.696;2024-02-23T05:11:07;8.8;64.9
78461;SHT31;67755;51.986;5.696;2024-02-23T05:13:36;8.8;64.8
78461;SHT31;67755;51.986;5.696;2024-02-23T05:16:07;8.8;64.7
78461;SHT31;67755;51.986;5.696;2024-02-23T05:18:36;8.9;65.6
78461;SHT31;67755;51.986;5.696;2024-02-23T05:21:07;8.9;65.2
78461;SHT31;67755;51.986;5.696;2024-02-23T05:23:36;8.9;64.9
78461;SHT31;67755;51.986;5.696;2024-02-23T05:26:05;8.9;65.1
78461;SHT31;67755;51.986;5.696;2024-02-23T05:28:33;8.9;65.2
78461;SHT31;67755;51.986;5.696;2024-02-23T05:31:04;8.9;65.3
78461;SHT31;67755;51.986;5.696;2024-02-23T05:33:32;9.0;64.9
78461;SHT31;67755;51.986;5.696;2024-02-23T05:36:00;9.0;63.8
78461;SHT31;67755;51.986;5.696;2024-02-23T05:38:29;9.0;63.8
78461;SHT31;67755;51.986;5.696;2024-02-23T05:40:57;9.0;65.0
78461;SHT31;67755;51.986;5.696;2024-02-23T05:43:26;9.0;64.8
78461;SHT31;67755;51.986;5.696;2024-02-23T05:45:54;9.1;64.2
78461;SHT31;67755;51.986;5.696;2024-02-23T05:48:25;9.1;64.4
78461;SHT31;67755;51.986;5.696;2024-02-23T05:50:53;9.1;64.3
78461;SHT31;67755;51.986;5.696;2024-02-23T05:53:22;9.1;64.1
78461;SHT31;67755;51.986;5.696;2024-02-23T05:55:52;9.1;63.9
78461;SHT31;67755;51.986;5.696;2024-02-23T05:58:21;9.2;63.3
78461;SHT31;67755;51.986;5.696;2024-02-23T06:00:50;9.2;63.2
78461;SHT31;67755;51.986;5.696;2024-02-23T06:03:21;9.2;64.1
78461;SHT31;67755;51.986;5.696;2024-02-23T06:05:50;9.2;63.6
78461;SHT31;67755;51.986;5.696;2024-02-23T06:08:20;9.2;63.1
78461;SHT31;67755;51.986;5.696;2024-02-23T06:10:49;9.2;63.9
78461;SHT31;67755;51.986;5.696;2024-02-23T06:13:17;9.2;63.0
78461;SHT31;67755;51.986;5.696;2024-02-23T06:15:45;9.3;63.0
78461;SHT31;67755;51.986;5.696;2024-02-23T06:18:14;9.3;63.1
78461;SHT31;67755;51.986;5.696;2024-02-23T06:20:43;9.3;63.5
78461;SHT31;67755;51.986;5.696;2024-02-23T06:23:11;9.3;62.8
78461;SHT31;67755;51.986;5.696;2024-02-23T06:25:40;9.3;63.3
78461;SHT31;67755;51.986;5.696;2024-02-23T06:28:08;9.3;63.4
78461;SHT31;67755;51.986;5.696;2024-02-23T06:30:37;9.3;62.3
78461;SHT31;67755;51.986;5.696;2024-02-23T06:33:05;9.3;63.0
78461;SHT31;67755;51.986;5.696;2024-02-23T06:35:34;9.4;62.0
78461;SHT31;67755;51.986;5.696;2024-02-23T06:38:03;9.4;62.5
78461;SHT31;67755;51.986;5.696;2024-02-23T06:40:33;9.4;62.2
78461;SHT31;67755;51.986;5.696;2024-02-23T06:43:01;9.4;62.7
78461;SHT31;67755;51.986;5.696;2024-02-23T06:45:30;9.4;62.0
78461;SHT31;67755;51.986;5.696;2024-02-23T06:47:59;9.4;63.8
78461;SHT31;67755;51.986;5.696;2024-02-23T06:50:29;9.4;62.4
78461;SHT31;67755;51.986;5.696;2024-02-23T06:52:57;9.4;62.6
78461;SHT31;67755;51.986;5.696;2024-02-23T06:55:28;9.4;62.8
78461;SHT31;67755;51.986;5.696;2024-02-23T06:58:00;9.4;63.0
78461;SHT31;67755;51.986;5.696;2024-02-23T07:00:31;9.4;63.3
78461;SHT31;67755;51.986;5.696;2024-02-23T07:02:59;9.4;62.8
78461;SHT31;67755;51.986;5.696;2024-02-23T07:05:30;9.4;63.4
78461;SHT31;67755;51.986;5.696;2024-02-23T07:07:58;9.4;62.9
78461;SHT31;67755;51.986;5.696;2024-02-23T07:10:27;9.4;62.0
78461;SHT31;67755;51.986;5.696;2024-02-23T07:13:00;9.4;61.0
78461;SHT31;67755;51.986;5.696;2024-02-23T07:15:28;9.4;62.5
78461;SHT31;67755;51.986;5.696;2024-02-23T07:17:59;9.4;61.6
78461;SHT31;67755;51.986;5.696;2024-02-23T07:20:27;9.4;62.0
78461;SHT31;67755;51.986;5.696;2024-02-23T07:22:56;9.4;61.3
78461;SHT31;67755;51.986;5.696;2024-02-23T07:25:25;9.4;61.1
78461;SHT31;67755;51.986;5.696;2024-02-23T07:27:53;9.4;60.6
78461;SHT31;67755;51.986;5.696;2024-02-23T07:30:22;9.4;60.9
78461;SHT31;67755;51.986;5.696;2024-02-23T07:32:52;9.5;62.2
78461;SHT31;67755;51.986;5.696;2024-02-23T07:35:21;9.5;62.5
78461;SHT31;67755;51.986;5.696;2024-02-23T07:37:49;9.5;62.0
78461;SHT31;67755;51.986;5.696;2024-02-23T07:40:18;9.5;60.9
78461;SHT31;67755;51.986;5.696;2024-02-23T07:42:46;9.5;60.9
78461;SHT31;67755;51.986;5.696;2024-02-23T07:45:16;9.5;60.3
78461;SHT31;67755;51.986;5.696;2024-02-23T07:47:45;9.5;61.2
78461;SHT31;67755;51.986;5.696;2024-02-23T07:50:14;9.6;61.6
78461;SHT31;67755;51.986;5.696;2024-02-23T07:52:44;9.6;61.2
78461;SHT31;67755;51.986;5.696;2024-02-23T07:55:13;9.6;60.6
78461;SHT31;67755;51.986;5.696;2024-02-23T07:57:42;9.6;60.6
78461;SHT31;67755;51.986;5.696;2024-02-23T08:00:11;9.6;60.9
78461;SHT31;67755;51.986;5.696;2024-02-23T08:02:40;9.6;60.7
78461;SHT31;67755;51.986;5.696;2024-02-23T08:05:09;9.7;59.7
78461;SHT31;67755;51.986;5.696;2024-02-23T08:07:38;9.7;60.6
78461;SHT31;67755;51.986;5.696;2024-02-23T08:10:09;9.7;60.2
78461;SHT31;67755;51.986;5.696;2024-02-23T08:12:39;9.7;60.5
78461;SHT31;67755;51.986;5.696;2024-02-23T08:15:08;9.7;60.2
78461;SHT31;67755;51.986;5.696;2024-02-23T08:17:37;9.7;60.2
78461;SHT31;67755;51.986;5.696;2024-02-23T08:20:06;9.7;59.6
78461;SHT31;67755;51.986;5.696;2024-02-23T08:22:35;9.8;58.7
78461;SHT31;67755;51.986;5.696;2024-02-23T08:25:04;9.8;59.6
78461;SHT31;67755;51.986;5.696;2024-02-23T08:27:32;9.8;59.1
78461;SHT31;67755;51.986;5.696;2024-02-23T08:30:01;9.8;59.3
78461;SHT31;67755;51.986;5.696;2024-02-23T08:32:29;9.8;59.2
78461;SHT31;67755;51.986;5.696;2024-02-23T08:35:00;9.8;60.3
78461;SHT31;67755;51.986;5.696;2024-02-23T08:37:28;9.8;59.8
78461;SHT31;67755;51.986;5.696;2024-02-23T08:39:57;9.8;61.0
78461;SHT31;67755;51.986;5.696;2024-02-23T08:42:26;9.8;60.6
78461;SHT31;67755;51.986;5.696;2024-02-23T08:44:56;9.9;60.4
78461;SHT31;67755;51.986;5.696;2024-02-23T08:47:25;9.9;59.4
78461;SHT31;67755;51.986;5.696;2024-02-23T08:49:58;9.9;59.7
78461;SHT31;67755;51.986;5.696;2024-02-23T08:52:27;9.9;60.7
78461;SHT31;67755;51.986;5.696;2024-02-23T08:54:57;10.0;59.9
78461;SHT31;67755;51.986;5.696;2024-02-23T08:57:27;10.0;59.7
78461;SHT31;67755;51.986;5.696;2024-02-23T08:59:57;10.0;59.4
78461;SHT31;67755;51.986;5.696;2024-02-23T09:02:25;10.0;59.2
78461;SHT31;67755;51.986;5.696;2024-02-23T09:04:56;10.1;58.7
78461;SHT31;67755;51.986;5.696;2024-02-23T09:07:25;10.1;59.2
78461;SHT31;67755;51.986;5.696;2024-02-23T09:09:53;10.1;58.5
78461;SHT31;67755;51.986;5.696;2024-02-23T09:12:24;10.1;59.2
78461;SHT31;67755;51.986;5.696;2024-02-23T09:14:53;10.1;59.7
78461;SHT31;67755;51.986;5.696;2024-02-23T09:17:22;10.1;59.0
78461;SHT31;67755;51.986;5.696;2024-02-23T09:19:53;10.1;58.6
78461;SHT31;67755;51.986;5.696;2024-02-23T09:22:22;10.2;58.6
78461;SHT31;67755;51.986;5.696;2024-02-23T09:24:51;10.2;58.2
78461;SHT31;67755;51.986;5.696;2024-02-23T09:27:22;10.2;59.0
78461;SHT31;67755;51.986;5.696;2024-02-23T09:29:50;10.2;59.0
78461;SHT31;67755;51.986;5.696;2024-02-23T09:32:19;10.2;58.9
78461;SHT31;67755;51.986;5.696;2024-02-23T09:34:48;10.2;59.2
78461;SHT31;67755;51.986;5.696;2024-02-23T09:37:16;10.2;58.4
78461;SHT31;67755;51.986;5.696;2024-02-23T09:39:44;10.3;58.7
78461;SHT31;67755;51.986;5.696;2024-02-23T09:42:16;10.3;58.8
78461;SHT31;67755;51.986;5.696;2024-02-23T09:44:47;10.3;60.0
78461;SHT31;67755;51.986;5.696;2024-02-23T09:47:19;10.3;59.7
78461;SHT31;67755;51.986;5.696;2024-02-23T09:49:50;10.3;58.7
78461;SHT31;67755;51.986;5.696;2024-02-23T09:52:21;10.3;58.3
78461;SHT31;67755;51.986;5.696;2024-02-23T09:54:50;10.4;59.8
78461;SHT31;67755;51.986;5.696;2024-02-23T09:57:19;10.4;60.5
78461;SHT31;67755;51.986;5.696;2024-02-23T09:59:51;10.4;60.1
78461;SHT31;67755;51.986;5.696;2024-02-23T10:02:21;10.4;60.8
78461;SHT31;67755;51.986;5.696;2024-02-23T10:04:53;10.5;60.3
78461;SHT31;67755;51.986;5.696;2024-02-23T10:07:23;10.5;61.5
78461;SHT31;67755;51.986;5.696;2024-02-23T10:09:53;10.5;60.9
78461;SHT31;67755;51.986;5.696;2024-02-23T10:12:25;10.5;60.6
78461;SHT31;67755;51.986;5.696;2024-02-23T10:14:54;10.4;61.2
78461;SHT31;67755;51.986;5.696;2024-02-23T10:17:22;10.4;61.3
78461;SHT31;67755;51.986;5.696;2024-02-23T10:19:51;10.4;60.6
78461;SHT31;67755;51.986;5.696;2024-02-23T10:22:19;10.4;61.6
78461;SHT31;67755;51.986;5.696;2024-02-23T10:24:51;10.4;60.9
78461;SHT31;67755;51.986;5.696;2024-02-23T10:27:21;10.3;62.7
78461;SHT31;67755;51.986;5.696;2024-02-23T10:29:51;10.3;61.9
78461;SHT31;67755;51.986;5.696;2024-02-23T10:32:23;10.3;61.4
78461;SHT31;67755;51.986;5.696;2024-02-23T10:34:52;10.3;61.2
78461;SHT31;67755;51.986;5.696;2024-02-23T10:37:22;10.3;62.2
78461;SHT31;67755;51.986;5.696;2024-02-23T10:39:55;10.3;61.4
78461;SHT31;67755;51.986;5.696;2024-02-23T10:42:33;10.3;61.6
78461;SHT31;67755;51.986;5.696;2024-02-23T10:45:02;10.3;61.7
78461;SHT31;67755;51.986;5.696;2024-02-23T10:47:32;10.3;62.2
78461;SHT31;67755;51.986;5.696;2024-02-23T10:50:04;10.3;63.0
78461;SHT31;67755;51.986;5.696;2024-02-23T10:52:36;10.3;63.1
78461;SHT31;67755;51.986;5.696;2024-02-23T10:55:08;10.4;61.5
78461;SHT31;67755;51.986;5.696;2024-02-23T10:57:37;10.4;61.8
78461;SHT31;67755;51.986;5.696;2024-02-23T11:00:08;10.4;61.1
78461;SHT31;67755;51.986;5.696;2024-02-23T11:02:43;10.4;61.3
78461;SHT31;67755;51.986;5.696;2024-02-23T11:05:12;10.5;60.0
78461;SHT31;67755;51.986;5.696;2024-02-23T11:07:42;10.5;61.1
78461;SHT31;67755;51.986;5.696;2024-02-23T11:10:13;10.5;60.1
78461;SHT31;67755;51.986;5.696;2024-02-23T11:12:43;10.5;60.4
78461;SHT31;67755;51.986;5.696;2024-02-23T11:15:27;10.5;60.5
78461;SHT31;67755;51.986;5.696;2024-02-23T11:17:56;10.5;60.5
78461;SHT31;67755;51.986;5.696;2024-02-23T11:20:35;10.5;59.9
78461;SHT31;67755;51.986;5.696;2024-02-23T11:23:14;10.6;60.6
78461;SHT31;67755;51.986;5.696;2024-02-23T11:25:43;10.6;60.5
78461;SHT31;67755;51.986;5.696;2024-02-23T11:28:23;10.6;61.2
78461;SHT31;67755;51.986;5.696;2024-02-23T11:30:53;10.6;59.9
78461;SHT31;67755;51.986;5.696;2024-02-23T11:33:27;10.6;59.7
78461;SHT31;67755;51.986;5.696;2024-02-23T11:36:06;10.6;59.2
78461;SHT31;67755;51.986;5.696;2024-02-23T11:38:35;10.6;59.5
78461;SHT31;67755;51.986;5.696;2024-02-23T11:41:06;10.6;59.8
78461;SHT31;67755;51.986;5.696;2024-02-23T11:43:37;10.6;60.8
78461;SHT31;67755;51.986;5.696;2024-02-23T11:46:09;10.6;61.0
78461;SHT31;67755;51.986;5.696;2024-02-23T11:48:40;10.6;61.1
78461;SHT31;67755;51.986;5.696;2024-02-23T11:51:10;10.6;60.5
78461;SHT31;67755;51.986;5.696;2024-02-23T11:53:39;10.6;61.3
78461;SHT31;67755;51.986;5.696;2024-02-23T11:56:08;10.7;60.1
78461;SHT31;67755;51.986;5.696;2024-02-23T11:58:39;10.7;60.8
78461;SHT31;67755;51.986;5.696;2024-02-23T12:01:08;10.7;60.6
78461;SHT31;67755;51.986;5.696;2024-02-23T12:03:37;10.8;61.9
78461;SHT31;67755;51.986;5.696;2024-02-23T12:06:07;10.8;60.2
78461;SHT31;67755;51.986;5.696;2024-02-23T12:08:36;10.8;59.7
78461;SHT31;67755;51.986;5.696;2024-02-23T12:11:07;10.8;59.9
78461;SHT31;67755;51.986;5.696;2024-02-23T12:13:36;10.9;59.9
78461;SHT31;67755;51.986;5.696;2024-02-23T12:16:07;10.9;60.4
78461;SHT31;67755;51.986;5.696;2024-02-23T12:18:36;10.9;60.5
78461;SHT31;67755;51.986;5.696;2024-02-23T12:21:07;10.9;60.0
78461;SHT31;67755;51.986;5.696;2024-02-23T12:23:43;11.0;60.3
78461;SHT31;67755;51.986;5.696;2024-02-23T12:26:13;11.0;60.0
78461;SHT31;67755;51.986;5.696;2024-02-23T12:28:42;11.0;60.0
78461;SHT31;67755;51.986;5.696;2024-02-23T12:31:12;11.0;60.0
78461;SHT31;67755;51.986;5.696;2024-02-23T12:33:42;11.1;59.9
78461;SHT31;67755;51.986;5.696;2024-02-23T12:36:17;11.1;60.6
78461;SHT31;67755;51.986;5.696;2024-02-23T12:38:46;11.1;60.7
78461;SHT31;67755;51.986;5.696;2024-02-23T12:41:15;11.1;59.0
78461;SHT31;67755;51.986;5.696;2024-02-23T12:43:44;11.2;59.6
78461;SHT31;67755;51.986;5.696;2024-02-23T12:46:12;11.2;60.3
78461;SHT31;67755;51.986;5.696;2024-02-23T12:48:41;11.2;59.5
78461;SHT31;67755;51.986;5.696;2024-02-23T12:51:10;11.3;59.5
78461;SHT31;67755;51.986;5.696;2024-02-23T12:53:40;11.3;59.5
78461;SHT31;67755;51.986;5.696;2024-02-23T12:56:11;11.4;59.8
78461;SHT31;67755;51.986;5.696;2024-02-23T12:58:41;11.4;59.9
78461;SHT31;67755;51.986;5.696;2024-02-23T13:01:11;11.5;60.6
78461;SHT31;67755;51.986;5.696;2024-02-23T13:03:40;11.5;59.4
78461;SHT31;67755;51.986;5.696;2024-02-23T13:06:09;11.6;59.2
78461;SHT31;67755;51.986;5.696;2024-02-23T13:08:37;11.6;59.3
78461;SHT31;67755;51.986;5.696;2024-02-23T13:11:08;11.6;57.9
78461;SHT31;67755;51.986;5.696;2024-02-23T13:13:37;11.7;59.1
78461;SHT31;67755;51.986;5.696;2024-02-23T13:16:06;11.7;57.9
78461;SHT31;67755;51.986;5.696;2024-02-23T13:18:35;11.7;58.3
78461;SHT31;67755;51.986;5.696;2024-02-23T13:21:06;11.7;58.0
78461;SHT31;67755;51.986;5.696;2024-02-23T13:23:34;11.8;56.5
78461;SHT31;67755;51.986;5.696;2024-02-23T13:26:03;11.8;56.5
78461;SHT31;67755;51.986;5.696;2024-02-23T13:28:32;11.8;55.8
78461;SHT31;67755;51.986;5.696;2024-02-23T13:31:00;11.8;56.0
78461;SHT31;67755;51.986;5.696;2024-02-23T13:33:29;11.8;56.8
78461;SHT31;67755;51.986;5.696;2024-02-23T13:35:57;11.8;55.8
78461;SHT31;67755;51.986;5.696;2024-02-23T13:38:26;11.8;56.2
78461;SHT31;67755;51.986;5.696;2024-02-23T13:40:56;11.8;56.8
78461;SHT31;67755;51.986;5.696;2024-02-23T13:43:25;11.8;56.2
78461;SHT31;67755;51.986;5.696;2024-02-23T13:45:54;11.8;57.2
78461;SHT31;67755;51.986;5.696;2024-02-23T13:48:23;11.8;57.0
78461;SHT31;67755;51.986;5.696;2024-02-23T13:50:51;11.9;56.9
78461;SHT31;67755;51.986;5.696;2024-02-23T13:53:20;11.9;56.5
78461;SHT31;67755;51.986;5.696;2024-02-23T13:55:48;11.9;56.4
78461;SHT31;67755;51.986;5.696;2024-02-23T13:58:18;11.9;55.4
78461;SHT31;67755;51.986;5.696;2024-02-23T14:00:47;11.9;55.8
78461;SHT31;67755;51.986;5.696;2024-02-23T14:03:17;11.9;55.8
78461;SHT31;67755;51.986;5.696;2024-02-23T14:05:46;11.9;56.7
78461;SHT31;67755;51.986;5.696;2024-02-23T14:08:14;12.0;55.3
78461;SHT31;67755;51.986;5.696;2024-02-23T14:10:43;12.0;56.9
78461;SHT31;67755;51.986;5.696;2024-02-23T14:13:12;12.0;56.1
78461;SHT31;67755;51.986;5.696;2024-02-23T14:15:40;12.0;56.2
78461;SHT31;67755;51.986;5.696;2024-02-23T14:18:09;12.0;55.6
78461;SHT31;67755;51.986;5.696;2024-02-23T14:20:39;12.0;55.6
78461;SHT31;67755;51.986;5.696;2024-02-23T14:23:08;12.0;55.4
78461;SHT31;67755;51.986;5.696;2024-02-23T14:25:37;12.1;55.3
78461;SHT31;67755;51.986;5.696;2024-02-23T14:28:07;12.1;55.6
78461;SHT31;67755;51.986;5.696;2024-02-23T14:30:36;12.1;54.4
78461;SHT31;67755;51.986;5.696;2024-02-23T14:33:06;12.1;55.2
78461;SHT31;67755;51.986;5.696;2024-02-23T14:35:35;12.1;55.2
78461;SHT31;67755;51.986;5.696;2024-02-23T14:38:04;12.1;55.1
78461;SHT31;67755;51.986;5.696;2024-02-23T14:40:32;12.1;57.0
78461;SHT31;67755;51.986;5.696;2024-02-23T14:43:01;12.1;55.0
78461;SHT31;67755;51.986;5.696;2024-02-23T14:45:29;12.1;56.4
78461;SHT31;67755;51.986;5.696;2024-02-23T14:47:58;12.2;56.2
78461;SHT31;67755;51.986;5.696;2024-02-23T14:50:27;12.2;57.3
78461;SHT31;67755;51.986;5.696;2024-02-23T14:52:56;12.2;55.9
78461;SHT31;67755;51.986;5.696;2024-02-23T14:55:25;12.2;57.1
78461;SHT31;67755;51.986;5.696;2024-02-23T14:57:54;12.2;56.5
78461;SHT31;67755;51.986;5.696;2024-02-23T15:00:22;12.2;56.7
78461;SHT31;67755;51.986;5.696;2024-02-23T15:02:51;12.2;57.3
78461;SHT31;67755;51.986;5.696;2024-02-23T15:05:20;12.2;57.3
78461;SHT31;67755;51.986;5.696;2024-02-23T15:07:50;12.2;57.9
78461;SHT31;67755;51.986;5.696;2024-02-23T15:10:19;12.2;57.5
78461;SHT31;67755;51.986;5.696;2024-02-23T15:12:48;12.2;57.6
78461;SHT31;67755;51.986;5.696;2024-02-23T15:15:17;12.2;57.0
78461;SHT31;67755;51.986;5.696;2024-02-23T15:17:45;12.2;57.9
78461;SHT31;67755;51.986;5.696;2024-02-23T15:20:15;12.2;57.2
78461;SHT31;67755;51.986;5.696;2024-02-23T15:22:44;12.1;57.0
78461;SHT31;67755;51.986;5.696;2024-02-23T15:25:16;12.1;56.9
78461;SHT31;67755;51.986;5.696;2024-02-23T15:27:44;12.1;57.2
78461;SHT31;67755;51.986;5.696;2024-02-23T15:30:15;12.0;59.0
78461;SHT31;67755;51.986;5.696;2024-02-23T15:32:44;12.0;59.6
78461;SHT31;67755;51.986;5.696;2024-02-23T15:35:13;11.9;61.1
78461;SHT31;67755;51.986;5.696;2024-02-23T15:37:41;11.9;61.7
78461;SHT31;67755;51.986;5.696;2024-02-23T15:40:11;11.8;62.3
78461;SHT31;67755;51.986;5.696;2024-02-23T15:42:40;11.8;62.7
78461;SHT31;67755;51.986;5.696;2024-02-23T15:45:09;11.8;63.6
78461;SHT31;67755;51.986;5.696;2024-02-23T15:47:40;11.8;63.7
78461;SHT31;67755;51.986;5.696;2024-02-23T15:50:11;11.8;63.8
78461;SHT31;67755;51.986;5.696;2024-02-23T15:52:39;11.8;63.5
78461;SHT31;67755;51.986;5.696;2024-02-23T15:55:08;11.8;63.6
78461;SHT31;67755;51.986;5.696;2024-02-23T15:57:39;11.8;62.9
78461;SHT31;67755;51.986;5.696;2024-02-23T16:00:10;11.8;63.0
78461;SHT31;67755;51.986;5.696;2024-02-23T16:02:38;11.8;62.3
78461;SHT31;67755;51.986;5.696;2024-02-23T16:05:07;11.7;62.6
78461;SHT31;67755;51.986;5.696;2024-02-23T16:07:37;11.7;62.5
78461;SHT31;67755;51.986;5.696;2024-02-23T16:10:06;11.7;63.1
78461;SHT31;67755;51.986;5.696;2024-02-23T16:12:35;11.7;63.4
78461;SHT31;67755;51.986;5.696;2024-02-23T16:15:04;11.7;63.1
78461;SHT31;67755;51.986;5.696;2024-02-23T16:17:34;11.7;63.5
78461;SHT31;67755;51.986;5.696;2024-02-23T16:20:05;11.7;63.6
78461;SHT31;67755;51.986;5.696;2024-02-23T16:22:34;11.7;63.8